Vestmannaeyjar, Vestmannaeyjar Airport (BIVM)

NameVestmannaeyjar Airport
CityVestmannaeyjar
CountryIceland
ICAOBIVM
IATAVEY
Altitude99 m
CoordinatesGoogle Map
Live Air TrafficLiveATC.net
METARBIVM 161500Z 10040G56KT 3000 RA BR BKN003 OVC006 07/07 Q0998
2018-11-16 15:00:00 Wind: East (100°) 20.58 m/s - Visibility: 3000 m - Weather: Rain / Mist - Temperature: 7 °C - Dew point: 7 °C - Humidity: 100% - Pressure: 0998 hPa

Sorry, no flights used the airport in this database.